sensor_id;sensor_type;location;lat;lon;timestamp;temperature;humidity
23744;DHT22;12052;53.478;10.182;2022-08-21T00:00:26;15.70;99.90
23744;DHT22;12052;53.478;10.182;2022-08-21T00:03:05;15.70;99.90
23744;DHT22;12052;53.478;10.182;2022-08-21T00:05:33;15.70;99.90
23744;DHT22;12052;53.478;10.182;2022-08-21T00:07:58;15.60;99.90
23744;DHT22;12052;53.478;10.182;2022-08-21T00:10:24;15.60;99.90
23744;DHT22;12052;53.478;10.182;2022-08-21T00:12:50;15.60;99.90
23744;DHT22;12052;53.478;10.182;2022-08-21T00:15:20;15.60;99.90
23744;DHT22;12052;53.478;10.182;2022-08-21T00:17:45;15.50;99.90
23744;DHT22;12052;53.478;10.182;2022-08-21T00:20:13;15.50;99.90
23744;DHT22;12052;53.478;10.182;2022-08-21T00:22:40;15.50;99.90
23744;DHT22;12052;53.478;10.182;2022-08-21T00:25:07;15.50;99.90
23744;DHT22;12052;53.478;10.182;2022-08-21T00:27:33;15.50;99.90
23744;DHT22;12052;53.478;10.182;2022-08-21T00:29:59;15.50;99.90
23744;DHT22;12052;53.478;10.182;2022-08-21T00:32:26;15.40;99.90
23744;DHT22;12052;53.478;10.182;2022-08-21T00:34:52;15.40;99.90
23744;DHT22;12052;53.478;10.182;2022-08-21T00:37:18;15.40;99.90
23744;DHT22;12052;53.478;10.182;2022-08-21T00:39:44;15.30;99.90
23744;DHT22;12052;53.478;10.182;2022-08-21T00:42:11;15.30;99.90
23744;DHT22;12052;53.478;10.182;2022-08-21T00:44:43;15.30;99.90
23744;DHT22;12052;53.478;10.182;2022-08-21T00:47:10;15.30;99.90
23744;DHT22;12052;53.478;10.182;2022-08-21T00:49:37;15.30;99.90
23744;DHT22;12052;53.478;10.182;2022-08-21T00:52:03;15.30;99.90
23744;DHT22;12052;53.478;10.182;2022-08-21T00:54:31;15.20;99.90
23744;DHT22;12052;53.478;10.182;2022-08-21T00:57:02;15.20;99.90
23744;DHT22;12052;53.478;10.182;2022-08-21T00:59:32;15.20;99.90
23744;DHT22;12052;53.478;10.182;2022-08-21T01:01:58;15.20;99.90
23744;DHT22;12052;53.478;10.182;2022-08-21T01:04:24;15.20;99.90
23744;DHT22;12052;53.478;10.182;2022-08-21T01:06:49;15.20;99.90
23744;DHT22;12052;53.478;10.182;2022-08-21T01:09:16;15.10;99.90
23744;DHT22;12052;53.478;10.182;2022-08-21T01:11:43;15.10;99.90
23744;DHT22;12052;53.478;10.182;2022-08-21T01:14:09;15.10;99.90
23744;DHT22;12052;53.478;10.182;2022-08-21T01:16:39;15.10;99.90
23744;DHT22;12052;53.478;10.182;2022-08-21T01:19:07;15.10;99.90
23744;DHT22;12052;53.478;10.182;2022-08-21T01:21:33;15.00;99.90
23744;DHT22;12052;53.478;10.182;2022-08-21T01:24:00;15.00;99.90
23744;DHT22;12052;53.478;10.182;2022-08-21T01:26:28;15.00;99.90
23744;DHT22;12052;53.478;10.182;2022-08-21T01:29:00;14.90;99.90
23744;DHT22;12052;53.478;10.182;2022-08-21T01:31:27;14.90;99.90
23744;DHT22;12052;53.478;10.182;2022-08-21T01:33:54;14.80;99.90
23744;DHT22;12052;53.478;10.182;2022-08-21T01:36:20;14.80;99.90
23744;DHT22;12052;53.478;10.182;2022-08-21T01:38:46;14.70;99.90
23744;DHT22;12052;53.478;10.182;2022-08-21T01:41:13;14.70;99.90
23744;DHT22;12052;53.478;10.182;2022-08-21T01:43:38;14.60;99.90
23744;DHT22;12052;53.478;10.182;2022-08-21T01:46:04;14.60;99.90
23744;DHT22;12052;53.478;10.182;2022-08-21T01:48:30;14.60;99.90
23744;DHT22;12052;53.478;10.182;2022-08-21T01:50:56;14.50;99.90
23744;DHT22;12052;53.478;10.182;2022-08-21T01:53:22;14.50;99.90
23744;DHT22;12052;53.478;10.182;2022-08-21T01:55:47;14.50;99.90
23744;DHT22;12052;53.478;10.182;2022-08-21T01:58:13;14.50;99.90
23744;DHT22;12052;53.478;10.182;2022-08-21T02:00:38;14.50;99.90
23744;DHT22;12052;53.478;10.182;2022-08-21T02:03:04;14.50;99.90
23744;DHT22;12052;53.478;10.182;2022-08-21T02:05:30;14.50;99.90
23744;DHT22;12052;53.478;10.182;2022-08-21T02:07:56;14.50;99.90
23744;DHT22;12052;53.478;10.182;2022-08-21T02:10:28;14.40;99.90
23744;DHT22;12052;53.478;10.182;2022-08-21T02:12:55;14.40;99.90
23744;DHT22;12052;53.478;10.182;2022-08-21T02:15:21;14.40;99.90
23744;DHT22;12052;53.478;10.182;2022-08-21T02:17:57;14.40;99.90
23744;DHT22;12052;53.478;10.182;2022-08-21T02:20:34;14.40;99.90
23744;DHT22;12052;53.478;10.182;2022-08-21T02:23:00;14.30;99.90
23744;DHT22;12052;53.478;10.182;2022-08-21T02:25:27;14.30;99.90
23744;DHT22;12052;53.478;10.182;2022-08-21T02:27:54;14.30;99.90
23744;DHT22;12052;53.478;10.182;2022-08-21T02:30:26;14.30;99.90
23744;DHT22;12052;53.478;10.182;2022-08-21T02:32:52;14.30;99.90
23744;DHT22;12052;53.478;10.182;2022-08-21T02:35:18;14.20;99.90
23744;DHT22;12052;53.478;10.182;2022-08-21T02:37:49;14.20;99.90
23744;DHT22;12052;53.478;10.182;2022-08-21T02:40:18;14.20;99.90
23744;DHT22;12052;53.478;10.182;2022-08-21T02:42:44;14.20;99.90
23744;DHT22;12052;53.478;10.182;2022-08-21T02:45:11;14.20;99.90
23744;DHT22;12052;53.478;10.182;2022-08-21T02:47:37;14.20;99.90
23744;DHT22;12052;53.478;10.182;2022-08-21T02:50:04;14.20;99.90
23744;DHT22;12052;53.478;10.182;2022-08-21T02:52:29;14.20;99.90
23744;DHT22;12052;53.478;10.182;2022-08-21T02:54:55;14.20;99.90
23744;DHT22;12052;53.478;10.182;2022-08-21T02:57:20;14.10;99.90
23744;DHT22;12052;53.478;10.182;2022-08-21T02:59:46;14.10;99.90
23744;DHT22;12052;53.478;10.182;2022-08-21T03:02:12;14.10;99.90
23744;DHT22;12052;53.478;10.182;2022-08-21T03:04:38;14.10;99.90
23744;DHT22;12052;53.478;10.182;2022-08-21T03:07:03;14.10;99.90
23744;DHT22;12052;53.478;10.182;2022-08-21T03:09:29;14.10;99.90
23744;DHT22;12052;53.478;10.182;2022-08-21T03:11:55;14.10;99.90
23744;DHT22;12052;53.478;10.182;2022-08-21T03:14:20;14.10;99.90
23744;DHT22;12052;53.478;10.182;2022-08-21T03:16:46;14.00;99.90
23744;DHT22;12052;53.478;10.182;2022-08-21T03:19:11;14.00;99.90
23744;DHT22;12052;53.478;10.182;2022-08-21T03:21:38;14.00;99.90
23744;DHT22;12052;53.478;10.182;2022-08-21T03:24:04;14.00;99.90
23744;DHT22;12052;53.478;10.182;2022-08-21T03:26:30;14.00;99.90
23744;DHT22;12052;53.478;10.182;2022-08-21T03:28:56;14.00;99.90
23744;DHT22;12052;53.478;10.182;2022-08-21T03:31:23;14.00;99.90
23744;DHT22;12052;53.478;10.182;2022-08-21T03:33:48;14.00;99.90
23744;DHT22;12052;53.478;10.182;2022-08-21T03:36:15;14.00;99.90
23744;DHT22;12052;53.478;10.182;2022-08-21T03:38:41;14.00;99.90
23744;DHT22;12052;53.478;10.182;2022-08-21T03:41:07;14.00;99.90
23744;DHT22;12052;53.478;10.182;2022-08-21T03:43:33;13.90;99.90
23744;DHT22;12052;53.478;10.182;2022-08-21T03:46:03;13.90;99.90
23744;DHT22;12052;53.478;10.182;2022-08-21T03:48:29;13.90;99.90
23744;DHT22;12052;53.478;10.182;2022-08-21T03:50:54;13.90;99.90
23744;DHT22;12052;53.478;10.182;2022-08-21T03:53:20;13.90;99.90
23744;DHT22;12052;53.478;10.182;2022-08-21T03:55:48;13.90;99.90
23744;DHT22;12052;53.478;10.182;2022-08-21T03:58:16;13.90;99.90
23744;DHT22;12052;53.478;10.182;2022-08-21T04:00:41;13.80;99.90
23744;DHT22;12052;53.478;10.182;2022-08-21T04:03:07;13.80;99.90
23744;DHT22;12052;53.478;10.182;2022-08-21T04:05:33;13.80;99.90
23744;DHT22;12052;53.478;10.182;2022-08-21T04:08:02;13.80;99.90
23744;DHT22;12052;53.478;10.182;2022-08-21T04:10:30;13.80;99.90
23744;DHT22;12052;53.478;10.182;2022-08-21T04:12:56;13.80;99.90
23744;DHT22;12052;53.478;10.182;2022-08-21T04:15:22;13.70;99.90
23744;DHT22;12052;53.478;10.182;2022-08-21T04:17:49;13.70;99.90
23744;DHT22;12052;53.478;10.182;2022-08-21T04:20:16;13.70;99.90
23744;DHT22;12052;53.478;10.182;2022-08-21T04:22:42;13.80;99.90
23744;DHT22;12052;53.478;10.182;2022-08-21T04:25:10;13.70;99.90
23744;DHT22;12052;53.478;10.182;2022-08-21T04:27:36;13.70;99.90
23744;DHT22;12052;53.478;10.182;2022-08-21T04:30:02;13.70;99.90
23744;DHT22;12052;53.478;10.182;2022-08-21T04:32:28;13.70;99.90
23744;DHT22;12052;53.478;10.182;2022-08-21T04:35:03;13.70;99.90
23744;DHT22;12052;53.478;10.182;2022-08-21T04:37:29;13.70;99.90
23744;DHT22;12052;53.478;10.182;2022-08-21T04:39:55;13.60;99.90
23744;DHT22;12052;53.478;10.182;2022-08-21T04:42:26;13.60;99.90
23744;DHT22;12052;53.478;10.182;2022-08-21T04:44:53;13.60;99.90
23744;DHT22;12052;53.478;10.182;2022-08-21T04:47:19;13.70;99.90
23744;DHT22;12052;53.478;10.182;2022-08-21T04:49:45;13.60;99.90
23744;DHT22;12052;53.478;10.182;2022-08-21T04:52:11;13.70;99.90
23744;DHT22;12052;53.478;10.182;2022-08-21T04:54:38;13.70;99.90
23744;DHT22;12052;53.478;10.182;2022-08-21T04:57:06;13.70;99.90
23744;DHT22;12052;53.478;10.182;2022-08-21T04:59:42;13.60;99.90
23744;DHT22;12052;53.478;10.182;2022-08-21T05:02:10;13.70;99.90
23744;DHT22;12052;53.478;10.182;2022-08-21T05:04:38;13.70;99.90
23744;DHT22;12052;53.478;10.182;2022-08-21T05:07:09;13.60;99.90
23744;DHT22;12052;53.478;10.182;2022-08-21T05:09:37;13.60;99.90
23744;DHT22;12052;53.478;10.182;2022-08-21T05:12:03;13.60;99.90
23744;DHT22;12052;53.478;10.182;2022-08-21T05:14:29;13.70;99.90
23744;DHT22;12052;53.478;10.182;2022-08-21T05:16:55;13.70;99.90
23744;DHT22;12052;53.478;10.182;2022-08-21T05:19:20;13.70;99.90
23744;DHT22;12052;53.478;10.182;2022-08-21T05:21:46;13.80;99.90
23744;DHT22;12052;53.478;10.182;2022-08-21T05:24:13;13.90;99.90
23744;DHT22;12052;53.478;10.182;2022-08-21T05:26:39;13.80;99.90
23744;DHT22;12052;53.478;10.182;2022-08-21T05:29:05;13.90;99.90
23744;DHT22;12052;53.478;10.182;2022-08-21T05:31:31;13.90;99.90
23744;DHT22;12052;53.478;10.182;2022-08-21T05:33:57;14.00;99.90
23744;DHT22;12052;53.478;10.182;2022-08-21T05:36:22;14.00;99.90
23744;DHT22;12052;53.478;10.182;2022-08-21T05:38:48;14.10;99.90
23744;DHT22;12052;53.478;10.182;2022-08-21T05:41:14;14.10;99.90
23744;DHT22;12052;53.478;10.182;2022-08-21T05:43:39;14.20;99.90
23744;DHT22;12052;53.478;10.182;2022-08-21T05:46:06;14.30;99.90
23744;DHT22;12052;53.478;10.182;2022-08-21T05:48:32;14.30;99.90
23744;DHT22;12052;53.478;10.182;2022-08-21T05:51:08;14.40;99.90
23744;DHT22;12052;53.478;10.182;2022-08-21T05:53:34;14.50;99.90
23744;DHT22;12052;53.478;10.182;2022-08-21T05:55:59;14.50;99.90
23744;DHT22;12052;53.478;10.182;2022-08-21T05:58:25;14.60;99.90
23744;DHT22;12052;53.478;10.182;2022-08-21T06:00:51;14.70;99.90
23744;DHT22;12052;53.478;10.182;2022-08-21T06:03:21;14.70;99.90
23744;DHT22;12052;53.478;10.182;2022-08-21T06:05:47;14.80;99.90
23744;DHT22;12052;53.478;10.182;2022-08-21T06:08:14;14.80;99.90
23744;DHT22;12052;53.478;10.182;2022-08-21T06:10:41;14.80;99.90
23744;DHT22;12052;53.478;10.182;2022-08-21T06:13:07;14.90;99.90
23744;DHT22;12052;53.478;10.182;2022-08-21T06:15:33;14.90;99.90
23744;DHT22;12052;53.478;10.182;2022-08-21T06:17:58;15.00;99.90
23744;DHT22;12052;53.478;10.182;2022-08-21T06:20:24;14.90;99.90
23744;DHT22;12052;53.478;10.182;2022-08-21T06:22:49;15.00;99.90
23744;DHT22;12052;53.478;10.182;2022-08-21T06:25:15;15.00;99.90
23744;DHT22;12052;53.478;10.182;2022-08-21T06:27:41;15.00;99.90
23744;DHT22;12052;53.478;10.182;2022-08-21T06:30:07;15.10;99.90
23744;DHT22;12052;53.478;10.182;2022-08-21T06:32:34;15.10;99.90
23744;DHT22;12052;53.478;10.182;2022-08-21T06:34:59;15.20;99.90
23744;DHT22;12052;53.478;10.182;2022-08-21T06:37:25;15.20;99.90
23744;DHT22;12052;53.478;10.182;2022-08-21T06:39:50;15.20;99.90
23744;DHT22;12052;53.478;10.182;2022-08-21T06:42:17;15.30;99.90
23744;DHT22;12052;53.478;10.182;2022-08-21T06:44:43;15.40;99.90
23744;DHT22;12052;53.478;10.182;2022-08-21T06:47:09;15.50;99.90
23744;DHT22;12052;53.478;10.182;2022-08-21T06:49:35;15.60;99.90
23744;DHT22;12052;53.478;10.182;2022-08-21T06:52:01;15.60;99.90
23744;DHT22;12052;53.478;10.182;2022-08-21T06:54:27;15.70;99.90
23744;DHT22;12052;53.478;10.182;2022-08-21T06:56:52;15.80;99.90
23744;DHT22;12052;53.478;10.182;2022-08-21T06:59:18;15.90;99.90
23744;DHT22;12052;53.478;10.182;2022-08-21T07:01:44;15.90;99.90
23744;DHT22;12052;53.478;10.182;2022-08-21T07:04:10;16.00;99.90
23744;DHT22;12052;53.478;10.182;2022-08-21T07:06:36;16.10;99.90
23744;DHT22;12052;53.478;10.182;2022-08-21T07:09:02;16.20;99.90
23744;DHT22;12052;53.478;10.182;2022-08-21T07:11:28;16.30;99.90
23744;DHT22;12052;53.478;10.182;2022-08-21T07:13:54;16.40;99.90
23744;DHT22;12052;53.478;10.182;2022-08-21T07:16:22;16.50;99.90
23744;DHT22;12052;53.478;10.182;2022-08-21T07:18:48;16.60;99.90
23744;DHT22;12052;53.478;10.182;2022-08-21T07:21:15;16.80;99.90
23744;DHT22;12052;53.478;10.182;2022-08-21T07:23:46;16.80;99.90
23744;DHT22;12052;53.478;10.182;2022-08-21T07:26:13;16.90;99.90
23744;DHT22;12052;53.478;10.182;2022-08-21T07:28:39;17.00;99.90
23744;DHT22;12052;53.478;10.182;2022-08-21T07:31:05;17.10;99.90
23744;DHT22;12052;53.478;10.182;2022-08-21T07:33:33;17.20;99.90
23744;DHT22;12052;53.478;10.182;2022-08-21T07:36:00;17.40;99.90
23744;DHT22;12052;53.478;10.182;2022-08-21T07:38:26;17.50;99.90
23744;DHT22;12052;53.478;10.182;2022-08-21T07:40:54;17.60;99.90
23744;DHT22;12052;53.478;10.182;2022-08-21T07:43:21;17.70;99.90
23744;DHT22;12052;53.478;10.182;2022-08-21T07:45:47;17.90;99.90
23744;DHT22;12052;53.478;10.182;2022-08-21T07:48:15;18.00;99.90
23744;DHT22;12052;53.478;10.182;2022-08-21T07:50:41;18.20;99.90
23744;DHT22;12052;53.478;10.182;2022-08-21T07:53:07;18.30;99.90
23744;DHT22;12052;53.478;10.182;2022-08-21T07:55:33;18.50;99.90
23744;DHT22;12052;53.478;10.182;2022-08-21T07:57:59;18.60;99.90
23744;DHT22;12052;53.478;10.182;2022-08-21T08:00:27;18.70;99.90
23744;DHT22;12052;53.478;10.182;2022-08-21T08:02:54;18.80;99.90
23744;DHT22;12052;53.478;10.182;2022-08-21T08:05:24;18.90;99.90
23744;DHT22;12052;53.478;10.182;2022-08-21T08:07:50;19.00;99.90
23744;DHT22;12052;53.478;10.182;2022-08-21T08:10:17;19.30;99.90
23744;DHT22;12052;53.478;10.182;2022-08-21T08:12:44;19.30;99.90
23744;DHT22;12052;53.478;10.182;2022-08-21T08:15:16;19.50;99.90
23744;DHT22;12052;53.478;10.182;2022-08-21T08:17:42;19.60;99.90
23744;DHT22;12052;53.478;10.182;2022-08-21T08:20:08;19.60;99.90
23744;DHT22;12052;53.478;10.182;2022-08-21T08:22:36;19.70;99.90
23744;DHT22;12052;53.478;10.182;2022-08-21T08:25:03;19.80;99.90
23744;DHT22;12052;53.478;10.182;2022-08-21T08:27:29;20.00;99.90
23744;DHT22;12052;53.478;10.182;2022-08-21T08:29:55;20.10;99.90
23744;DHT22;12052;53.478;10.182;2022-08-21T08:32:21;20.30;99.90
23744;DHT22;12052;53.478;10.182;2022-08-21T08:34:48;20.40;99.90
23744;DHT22;12052;53.478;10.182;2022-08-21T08:37:14;20.70;99.90
23744;DHT22;12052;53.478;10.182;2022-08-21T08:39:40;20.70;99.90
23744;DHT22;12052;53.478;10.182;2022-08-21T08:42:16;20.70;99.90
23744;DHT22;12052;53.478;10.182;2022-08-21T08:44:45;20.80;99.90
23744;DHT22;12052;53.478;10.182;2022-08-21T08:47:14;21.00;99.90
23744;DHT22;12052;53.478;10.182;2022-08-21T08:49:49;21.10;99.90
23744;DHT22;12052;53.478;10.182;2022-08-21T08:52:31;21.10;99.90
23744;DHT22;12052;53.478;10.182;2022-08-21T08:55:06;21.20;99.90
23744;DHT22;12052;53.478;10.182;2022-08-21T08:57:33;21.30;99.90
23744;DHT22;12052;53.478;10.182;2022-08-21T09:00:03;21.30;99.90
23744;DHT22;12052;53.478;10.182;2022-08-21T09:02:29;21.30;99.90
23744;DHT22;12052;53.478;10.182;2022-08-21T09:04:55;21.20;99.90
23744;DHT22;12052;53.478;10.182;2022-08-21T09:23:36;22.40;99.90
23744;DHT22;12052;53.478;10.182;2022-08-21T09:26:18;22.60;99.90
23744;DHT22;12052;53.478;10.182;2022-08-21T09:28:44;22.80;99.90
23744;DHT22;12052;53.478;10.182;2022-08-21T09:31:26;23.00;99.90
23744;DHT22;12052;53.478;10.182;2022-08-21T09:34:03;23.10;99.90
23744;DHT22;12052;53.478;10.182;2022-08-21T09:36:44;23.30;99.90
23744;DHT22;12052;53.478;10.182;2022-08-21T09:39:12;23.50;99.90
23744;DHT22;12052;53.478;10.182;2022-08-21T09:41:40;23.50;99.90
23744;DHT22;12052;53.478;10.182;2022-08-21T09:44:08;23.80;99.90
23744;DHT22;12052;53.478;10.182;2022-08-21T09:46:34;23.90;99.90
23744;DHT22;12052;53.478;10.182;2022-08-21T09:49:02;23.90;99.90
23744;DHT22;12052;53.478;10.182;2022-08-21T09:51:34;24.00;99.90
23744;DHT22;12052;53.478;10.182;2022-08-21T09:56:31;24.00;99.90
23744;DHT22;12052;53.478;10.182;2022-08-21T10:01:52;24.20;99.90
23744;DHT22;12052;53.478;10.182;2022-08-21T10:04:21;24.10;99.90
23744;DHT22;12052;53.478;10.182;2022-08-21T10:06:47;24.30;99.90
23744;DHT22;12052;53.478;10.182;2022-08-21T10:09:16;24.60;99.90
23744;DHT22;12052;53.478;10.182;2022-08-21T10:11:58;24.70;99.90
23744;DHT22;12052;53.478;10.182;2022-08-21T10:17:27;24.60;99.90
23744;DHT22;12052;53.478;10.182;2022-08-21T10:20:11;24.60;99.90
23744;DHT22;12052;53.478;10.182;2022-08-21T10:23:00;24.50;99.90
23744;DHT22;12052;53.478;10.182;2022-08-21T10:25:36;24.70;99.90
23744;DHT22;12052;53.478;10.182;2022-08-21T10:31:08;24.90;99.90
23744;DHT22;12052;53.478;10.182;2022-08-21T10:49:48;25.30;99.90
23744;DHT22;12052;53.478;10.182;2022-08-21T10:52:36;25.20;99.90
23744;DHT22;12052;53.478;10.182;2022-08-21T10:57:43;24.60;99.90
23744;DHT22;12052;53.478;10.182;2022-08-21T11:00:14;24.40;99.90
23744;DHT22;12052;53.478;10.182;2022-08-21T11:02:49;24.40;99.90
23744;DHT22;12052;53.478;10.182;2022-08-21T11:06:30;24.20;99.90
23744;DHT22;12052;53.478;10.182;2022-08-21T11:08:30;24.10;99.90
23744;DHT22;12052;53.478;10.182;2022-08-21T11:11:20;24.10;99.90
23744;DHT22;12052;53.478;10.182;2022-08-21T11:13:58;24.00;99.90
23744;DHT22;12052;53.478;10.182;2022-08-21T11:27:30;24.70;99.90
23744;DHT22;12052;53.478;10.182;2022-08-21T11:30:00;25.00;99.90
23744;DHT22;12052;53.478;10.182;2022-08-21T11:32:53;25.20;99.90
23744;DHT22;12052;53.478;10.182;2022-08-21T11:40:48;24.80;99.90
23744;DHT22;12052;53.478;10.182;2022-08-21T11:43:40;24.80;99.90
23744;DHT22;12052;53.478;10.182;2022-08-21T11:52:20;24.80;99.90
23744;DHT22;12052;53.478;10.182;2022-08-21T11:55:13;25.00;99.90
23744;DHT22;12052;53.478;10.182;2022-08-21T11:58:09;25.30;99.90
23744;DHT22;12052;53.478;10.182;2022-08-21T12:01:03;25.40;99.90
23744;DHT22;12052;53.478;10.182;2022-08-21T12:03:36;25.50;99.90
23744;DHT22;12052;53.478;10.182;2022-08-21T12:06:10;25.50;99.90
23744;DHT22;12052;53.478;10.182;2022-08-21T12:08:43;25.70;99.90
23744;DHT22;12052;53.478;10.182;2022-08-21T12:13:59;25.80;99.90
23744;DHT22;12052;53.478;10.182;2022-08-21T12:16:32;26.10;99.90
23744;DHT22;12052;53.478;10.182;2022-08-21T12:24:39;25.90;99.90
23744;DHT22;12052;53.478;10.182;2022-08-21T12:29:49;25.30;99.90
23744;DHT22;12052;53.478;10.182;2022-08-21T12:34:46;25.10;99.90
23744;DHT22;12052;53.478;10.182;2022-08-21T12:37:50;25.20;99.90
23744;DHT22;12052;53.478;10.182;2022-08-21T12:43:13;25.30;99.90
23744;DHT22;12052;53.478;10.182;2022-08-21T12:45:45;25.20;99.90
23744;DHT22;12052;53.478;10.182;2022-08-21T12:48:21;25.30;99.90
23744;DHT22;12052;53.478;10.182;2022-08-21T12:50:51;25.40;99.90
23744;DHT22;12052;53.478;10.182;2022-08-21T12:53:22;25.20;99.90
23744;DHT22;12052;53.478;10.182;2022-08-21T12:55:49;25.20;99.90
23744;DHT22;12052;53.478;10.182;2022-08-21T12:58:20;25.30;99.90
23744;DHT22;12052;53.478;10.182;2022-08-21T13:01:27;25.30;99.90
23744;DHT22;12052;53.478;10.182;2022-08-21T13:03:58;25.30;99.90
23744;DHT22;12052;53.478;10.182;2022-08-21T13:06:25;25.10;99.90
23744;DHT22;12052;53.478;10.182;2022-08-21T13:09:03;25.10;99.90
23744;DHT22;12052;53.478;10.182;2022-08-21T13:11:29;25.00;99.90
23744;DHT22;12052;53.478;10.182;2022-08-21T13:13:54;25.00;99.90
23744;DHT22;12052;53.478;10.182;2022-08-21T13:16:24;25.10;99.90
23744;DHT22;12052;53.478;10.182;2022-08-21T13:19:00;25.10;99.90
23744;DHT22;12052;53.478;10.182;2022-08-21T13:21:40;25.10;99.90
23744;DHT22;12052;53.478;10.182;2022-08-21T13:26:35;25.30;99.90
23744;DHT22;12052;53.478;10.182;2022-08-21T13:29:08;25.30;99.90
23744;DHT22;12052;53.478;10.182;2022-08-21T13:31:37;25.50;99.90
23744;DHT22;12052;53.478;10.182;2022-08-21T13:34:05;25.30;99.90
23744;DHT22;12052;53.478;10.182;2022-08-21T13:36:34;25.20;99.90
23744;DHT22;12052;53.478;10.182;2022-08-21T13:39:03;25.20;99.90
23744;DHT22;12052;53.478;10.182;2022-08-21T13:41:32;25.20;99.90
23744;DHT22;12052;53.478;10.182;2022-08-21T13:44:03;25.20;99.90
23744;DHT22;12052;53.478;10.182;2022-08-21T13:46:33;25.10;99.90
23744;DHT22;12052;53.478;10.182;2022-08-21T13:49:01;24.90;99.90
23744;DHT22;12052;53.478;10.182;2022-08-21T13:51:29;24.80;99.90
23744;DHT22;12052;53.478;10.182;2022-08-21T13:53:55;25.00;99.90
23744;DHT22;12052;53.478;10.182;2022-08-21T13:56:27;25.00;99.90
23744;DHT22;12052;53.478;10.182;2022-08-21T13:58:54;24.80;99.90
23744;DHT22;12052;53.478;10.182;2022-08-21T14:01:37;24.70;99.90
23744;DHT22;12052;53.478;10.182;2022-08-21T14:04:33;24.60;99.90
23744;DHT22;12052;53.478;10.182;2022-08-21T14:07:00;24.50;99.90
23744;DHT22;12052;53.478;10.182;2022-08-21T14:09:39;24.60;99.90
23744;DHT22;12052;53.478;10.182;2022-08-21T14:12:15;24.70;99.90
23744;DHT22;12052;53.478;10.182;2022-08-21T14:14:41;24.80;99.90
23744;DHT22;12052;53.478;10.182;2022-08-21T14:17:13;25.00;99.90
23744;DHT22;12052;53.478;10.182;2022-08-21T14:19:45;25.10;99.90
23744;DHT22;12052;53.478;10.182;2022-08-21T14:25:02;25.10;99.90
23744;DHT22;12052;53.478;10.182;2022-08-21T14:27:30;25.30;99.90
23744;DHT22;12052;53.478;10.182;2022-08-21T14:30:03;25.30;99.90
23744;DHT22;12052;53.478;10.182;2022-08-21T14:32:38;25.20;99.90
23744;DHT22;12052;53.478;10.182;2022-08-21T14:35:05;25.20;99.90
23744;DHT22;12052;53.478;10.182;2022-08-21T14:37:31;25.20;99.90
23744;DHT22;12052;53.478;10.182;2022-08-21T14:39:57;25.30;99.90
23744;DHT22;12052;53.478;10.182;2022-08-21T14:42:23;25.20;99.90
23744;DHT22;12052;53.478;10.182;2022-08-21T14:44:49;25.20;99.90
23744;DHT22;12052;53.478;10.182;2022-08-21T14:47:15;25.30;99.90
23744;DHT22;12052;53.478;10.182;2022-08-21T14:49:40;25.20;99.90
23744;DHT22;12052;53.478;10.182;2022-08-21T14:52:06;25.30;99.90
23744;DHT22;12052;53.478;10.182;2022-08-21T14:54:32;25.40;99.90
23744;DHT22;12052;53.478;10.182;2022-08-21T14:57:05;25.40;99.90
23744;DHT22;12052;53.478;10.182;2022-08-21T14:59:31;25.40;99.90
23744;DHT22;12052;53.478;10.182;2022-08-21T15:01:58;25.40;99.90
23744;DHT22;12052;53.478;10.182;2022-08-21T15:04:24;25.40;99.90
23744;DHT22;12052;53.478;10.182;2022-08-21T15:06:50;25.50;99.90
23744;DHT22;12052;53.478;10.182;2022-08-21T15:09:15;25.50;99.90
23744;DHT22;12052;53.478;10.182;2022-08-21T15:11:41;25.40;99.90
23744;DHT22;12052;53.478;10.182;2022-08-21T15:14:18;25.20;99.90
23744;DHT22;12052;53.478;10.182;2022-08-21T15:16:44;25.10;99.90
23744;DHT22;12052;53.478;10.182;2022-08-21T15:19:09;25.00;99.90
23744;DHT22;12052;53.478;10.182;2022-08-21T15:21:35;25.00;99.90
23744;DHT22;12052;53.478;10.182;2022-08-21T15:24:00;25.00;99.90
23744;DHT22;12052;53.478;10.182;2022-08-21T15:26:26;25.00;99.90
23744;DHT22;12052;53.478;10.182;2022-08-21T15:28:51;25.00;99.90
23744;DHT22;12052;53.478;10.182;2022-08-21T15:31:17;25.00;99.90
23744;DHT22;12052;53.478;10.182;2022-08-21T15:33:43;25.00;99.90
23744;DHT22;12052;53.478;10.182;2022-08-21T15:36:08;25.00;99.90
23744;DHT22;12052;53.478;10.182;2022-08-21T15:38:34;25.00;99.90
23744;DHT22;12052;53.478;10.182;2022-08-21T15:41:02;24.90;99.90
23744;DHT22;12052;53.478;10.182;2022-08-21T15:43:30;24.90;99.90
23744;DHT22;12052;53.478;10.182;2022-08-21T15:46:00;24.90;99.90
23744;DHT22;12052;53.478;10.182;2022-08-21T15:48:26;24.90;99.90
23744;DHT22;12052;53.478;10.182;2022-08-21T15:50:52;24.90;99.90
23744;DHT22;12052;53.478;10.182;2022-08-21T15:53:18;24.90;99.90
23744;DHT22;12052;53.478;10.182;2022-08-21T15:55:43;24.90;99.90
23744;DHT22;12052;53.478;10.182;2022-08-21T15:58:15;25.00;99.90
23744;DHT22;12052;53.478;10.182;2022-08-21T16:00:43;25.00;99.90
23744;DHT22;12052;53.478;10.182;2022-08-21T16:03:10;25.00;99.90
23744;DHT22;12052;53.478;10.182;2022-08-21T16:05:39;25.00;99.90
23744;DHT22;12052;53.478;10.182;2022-08-21T16:08:05;25.10;99.90
23744;DHT22;12052;53.478;10.182;2022-08-21T16:10:30;25.00;99.90
23744;DHT22;12052;53.478;10.182;2022-08-21T16:13:03;25.10;99.90
23744;DHT22;12052;53.478;10.182;2022-08-21T16:15:29;25.00;99.90
23744;DHT22;12052;53.478;10.182;2022-08-21T16:17:55;25.00;99.90
23744;DHT22;12052;53.478;10.182;2022-08-21T16:20:25;25.00;99.90
23744;DHT22;12052;53.478;10.182;2022-08-21T16:22:53;25.00;99.90
23744;DHT22;12052;53.478;10.182;2022-08-21T16:25:19;24.90;99.90
23744;DHT22;12052;53.478;10.182;2022-08-21T16:27:49;24.90;99.90
23744;DHT22;12052;53.478;10.182;2022-08-21T16:30:17;24.80;99.90
23744;DHT22;12052;53.478;10.182;2022-08-21T16:32:43;24.70;99.90
23744;DHT22;12052;53.478;10.182;2022-08-21T16:35:14;24.70;99.90
23744;DHT22;12052;53.478;10.182;2022-08-21T16:37:40;24.60;99.90
23744;DHT22;12052;53.478;10.182;2022-08-21T16:40:07;24.60;99.90
23744;DHT22;12052;53.478;10.182;2022-08-21T16:42:35;24.60;99.90
23744;DHT22;12052;53.478;10.182;2022-08-21T16:45:04;24.60;99.90
23744;DHT22;12052;53.478;10.182;2022-08-21T16:47:30;24.50;99.90
23744;DHT22;12052;53.478;10.182;2022-08-21T16:49:56;24.50;99.90
23744;DHT22;12052;53.478;10.182;2022-08-21T16:52:22;24.50;99.90
23744;DHT22;12052;53.478;10.182;2022-08-21T16:54:48;24.50;99.90